createdAt,value
2018-04-04T00:00:22.783Z,13.9
2018-04-04T00:01:23.440Z,13.8
2018-04-04T00:02:24.094Z,13.9
2018-04-04T00:03:24.752Z,13.9
2018-04-04T00:04:25.446Z,13.8
2018-04-04T00:05:26.101Z,13.8
2018-04-04T00:06:26.757Z,13.8
2018-04-04T00:07:27.452Z,13.8
2018-04-04T00:08:28.108Z,13.7
2018-04-04T00:09:28.764Z,13.7
2018-04-04T00:10:29.420Z,13.7
2018-04-04T00:11:30.076Z,13.7
2018-04-04T00:12:30.732Z,13.7
2018-04-04T00:13:31.387Z,13.6
2018-04-04T00:14:32.043Z,13.6
2018-04-04T00:15:32.701Z,13.5
2018-04-04T00:16:33.356Z,13.5
2018-04-04T00:17:34.014Z,13.4
2018-04-04T00:18:34.669Z,13.4
2018-04-04T00:19:35.361Z,13.4
2018-04-04T00:20:36.020Z,13.3
2018-04-04T00:21:36.673Z,13.3
2018-04-04T00:22:37.330Z,13.3
2018-04-04T00:23:37.990Z,13.2
2018-04-04T00:24:38.645Z,13.2
2018-04-04T00:25:39.334Z,13.1
2018-04-04T00:26:39.991Z,13.0
2018-04-04T00:27:40.685Z,13.0
2018-04-04T00:28:41.342Z,13.1
2018-04-04T00:29:41.998Z,13.0
2018-04-04T00:30:42.654Z,13.0
2018-04-04T00:31:43.309Z,12.9
2018-04-04T00:32:43.965Z,12.8
2018-04-04T00:33:44.620Z,12.8
2018-04-04T00:34:45.276Z,12.8
2018-04-04T00:35:45.967Z,12.7
2018-04-04T00:36:46.622Z,12.8
2018-04-04T00:37:47.278Z,12.7
2018-04-04T00:38:47.932Z,12.6
2018-04-04T00:39:48.589Z,12.7
2018-04-04T00:40:49.244Z,12.6
2018-04-04T00:41:49.899Z,12.5
2018-04-04T00:42:50.555Z,12.5
2018-04-04T00:43:51.210Z,12.4
2018-04-04T00:44:51.868Z,12.3
2018-04-04T00:45:52.523Z,12.4
2018-04-04T00:46:53.177Z,12.4
2018-04-04T00:47:53.834Z,12.3
2018-04-04T00:48:54.489Z,12.3
2018-04-04T00:49:55.142Z,12.2
2018-04-04T00:50:55.797Z,12.2
2018-04-04T00:51:56.454Z,12.2
2018-04-04T00:52:57.108Z,12.2
2018-04-04T00:53:57.764Z,12.3
2018-04-04T00:54:58.420Z,12.2
2018-04-04T00:55:59.076Z,12.1
2018-04-04T00:56:59.730Z,12.2
2018-04-04T00:58:00.386Z,12.1
2018-04-04T00:59:01.042Z,12.1
2018-04-04T01:00:01.698Z,12.1
2018-04-04T01:01:02.358Z,12.1
2018-04-04T01:02:03.009Z,12.1
2018-04-04T01:03:03.664Z,12.1
2018-04-04T01:04:04.319Z,12.0
2018-04-04T01:05:04.972Z,12.0
2018-04-04T01:06:05.629Z,12.1
2018-04-04T01:07:06.284Z,12.1
2018-04-04T01:08:06.977Z,12.0
2018-04-04T01:09:07.632Z,12.0
2018-04-04T01:10:08.287Z,12.0
2018-04-04T01:11:08.943Z,12.0
2018-04-04T01:12:09.635Z,12.0
2018-04-04T01:13:10.292Z,11.9
2018-04-04T01:14:10.947Z,11.9
2018-04-04T01:15:11.601Z,12.0
2018-04-04T01:16:12.257Z,11.9
2018-04-04T01:17:12.911Z,11.9
2018-04-04T01:18:13.569Z,11.8
2018-04-04T01:19:14.223Z,11.8
2018-04-04T01:20:14.876Z,11.9
2018-04-04T01:21:15.531Z,11.9
2018-04-04T01:22:16.189Z,11.8
2018-04-04T01:23:16.840Z,11.8
2018-04-04T01:24:17.497Z,11.9
2018-04-04T01:25:18.150Z,11.8
2018-04-04T01:26:18.806Z,11.7
2018-04-04T01:27:19.460Z,11.7
2018-04-04T01:28:20.117Z,11.7
2018-04-04T01:29:20.770Z,11.7
2018-04-04T01:30:21.426Z,11.7
2018-04-04T01:31:22.080Z,11.7
2018-04-04T01:32:22.773Z,11.7
2018-04-04T01:33:23.428Z,11.6
2018-04-04T01:34:24.085Z,11.6
2018-04-04T01:35:24.738Z,11.5
2018-04-04T01:36:25.390Z,11.5
2018-04-04T01:37:26.045Z,11.6
2018-04-04T01:38:26.700Z,11.5
2018-04-04T01:39:27.357Z,11.6
2018-04-04T01:40:28.011Z,11.5
2018-04-04T01:41:28.665Z,11.5
2018-04-04T01:42:29.318Z,11.5
2018-04-04T01:43:29.975Z,11.7
2018-04-04T01:44:30.630Z,11.7
2018-04-04T01:45:31.284Z,11.7
2018-04-04T01:46:31.938Z,11.9
2018-04-04T01:47:32.596Z,11.9
2018-04-04T01:48:33.285Z,12.1
2018-04-04T01:49:33.946Z,12.2
2018-04-04T01:50:34.594Z,12.3
2018-04-04T01:51:35.250Z,12.4
2018-04-04T01:52:35.904Z,12.6
2018-04-04T01:53:36.559Z,12.7
2018-04-04T01:54:37.213Z,12.7
2018-04-04T01:55:37.869Z,12.8
2018-04-04T01:56:38.523Z,12.8
2018-04-04T01:57:39.178Z,12.8
2018-04-04T01:58:39.859Z,12.8
2018-04-04T01:59:40.488Z,12.8
2018-04-04T02:00:41.143Z,12.8
2018-04-04T02:01:41.803Z,12.9
2018-04-04T02:02:42.463Z,12.8
2018-04-04T02:03:43.110Z,12.7
2018-04-04T02:04:43.764Z,12.8
2018-04-04T02:05:44.420Z,12.7
2018-04-04T02:06:45.074Z,12.7
2018-04-04T02:07:45.731Z,12.8
2018-04-04T02:08:46.386Z,12.8
2018-04-04T02:09:47.040Z,12.8
2018-04-04T02:10:47.696Z,12.7
2018-04-04T02:11:48.351Z,12.8
2018-04-04T02:12:49.006Z,12.8
2018-04-04T02:13:49.660Z,12.8
2018-04-04T02:14:50.314Z,12.7
2018-04-04T02:15:50.970Z,12.7
2018-04-04T02:16:51.665Z,12.7
2018-04-04T02:17:52.316Z,12.7
2018-04-04T02:18:52.971Z,12.7
2018-04-04T02:19:53.627Z,12.7
2018-04-04T02:20:54.281Z,12.6
2018-04-04T02:21:54.937Z,12.7
2018-04-04T02:22:55.591Z,12.8
2018-04-04T02:23:56.283Z,12.8
2018-04-04T02:24:56.939Z,12.7
2018-04-04T02:25:57.593Z,12.8
2018-04-04T02:26:58.254Z,12.7
2018-04-04T02:27:58.905Z,12.7
2018-04-04T02:28:59.559Z,12.6
2018-04-04T02:30:00.214Z,12.6
2018-04-04T02:31:00.904Z,12.6
2018-04-04T02:32:01.590Z,12.6
2018-04-04T02:33:02.247Z,12.6
2018-04-04T02:34:02.904Z,12.5
2018-04-04T02:35:03.554Z,12.5
2018-04-04T02:36:04.210Z,12.5
2018-04-04T02:37:04.866Z,12.5
2018-04-04T02:38:05.521Z,12.5
2018-04-04T02:39:06.175Z,12.3
2018-04-04T02:40:06.831Z,12.2
2018-04-04T02:41:07.545Z,12.3
2018-04-04T02:42:08.140Z,12.2
2018-04-04T02:43:08.795Z,12.2
2018-04-04T02:44:09.450Z,12.1
2018-04-04T02:45:10.105Z,12.0
2018-04-04T02:46:10.761Z,12.0
2018-04-04T02:47:11.416Z,12.0
2018-04-04T02:48:12.070Z,11.9
2018-04-04T02:49:12.725Z,11.9
2018-04-04T02:50:13.383Z,11.9
2018-04-04T02:51:14.037Z,11.8
2018-04-04T02:52:14.692Z,11.7
2018-04-04T02:53:15.346Z,11.7
2018-04-04T02:54:16.002Z,11.7
2018-04-04T02:55:16.655Z,11.7
2018-04-04T02:56:17.312Z,11.7
2018-04-04T02:57:17.966Z,11.6
2018-04-04T02:58:18.621Z,11.5
2018-04-04T02:59:19.276Z,11.6
2018-04-04T03:00:19.931Z,11.6
2018-04-04T03:01:20.586Z,11.6
2018-04-04T03:02:21.242Z,11.6
2018-04-04T03:03:21.895Z,11.4
2018-04-04T03:04:22.551Z,11.5
2018-04-04T03:05:23.206Z,11.5
2018-04-04T03:06:23.862Z,11.4
2018-04-04T03:07:24.515Z,11.4
2018-04-04T03:08:25.170Z,11.4
2018-04-04T03:09:25.830Z,11.3
2018-04-04T03:10:26.481Z,11.3
2018-04-04T03:11:27.134Z,11.3
2018-04-04T03:12:27.789Z,11.3
2018-04-04T03:13:28.444Z,11.3
2018-04-04T03:14:29.101Z,11.2
2018-04-04T03:15:29.753Z,11.2
2018-04-04T03:16:30.408Z,11.2
2018-04-04T03:17:31.062Z,11.2
2018-04-04T03:18:31.719Z,11.1
2018-04-04T03:19:32.372Z,11.1
2018-04-04T03:20:33.026Z,11.1
2018-04-04T03:21:33.681Z,11.1
2018-04-04T03:22:34.337Z,11.2
2018-04-04T03:23:34.991Z,11.2
2018-04-04T03:24:35.683Z,11.2
2018-04-04T03:25:36.337Z,11.4
2018-04-04T03:26:36.993Z,11.4
2018-04-04T03:27:37.647Z,11.5
2018-04-04T03:28:38.313Z,11.5
2018-04-04T03:29:38.956Z,11.6
2018-04-04T03:30:39.611Z,11.7
2018-04-04T03:31:40.266Z,11.7
2018-04-04T03:32:40.919Z,11.7
2018-04-04T03:33:41.620Z,11.8
2018-04-04T03:34:42.267Z,11.9
2018-04-04T03:35:42.923Z,12.0
2018-04-04T03:36:43.610Z,12.1
2018-04-04T03:37:44.266Z,12.1
2018-04-04T03:38:44.920Z,12.0
2018-04-04T03:39:45.577Z,12.0
2018-04-04T03:40:46.228Z,12.1
2018-04-04T03:41:46.884Z,12.2
2018-04-04T03:42:47.537Z,12.2
2018-04-04T03:43:48.192Z,12.3
2018-04-04T03:44:48.848Z,12.3
2018-04-04T03:45:49.504Z,12.2
2018-04-04T03:46:50.160Z,12.3
2018-04-04T03:47:50.848Z,12.4
2018-04-04T03:48:51.504Z,12.3
2018-04-04T03:49:52.169Z,12.4
2018-04-04T03:50:52.812Z,12.3
2018-04-04T03:51:53.467Z,12.4
2018-04-04T03:52:54.122Z,12.3
2018-04-04T03:53:54.776Z,12.4
2018-04-04T03:54:55.432Z,12.4
2018-04-04T03:55:56.088Z,12.3
2018-04-04T03:56:56.743Z,12.5
2018-04-04T03:57:57.396Z,12.5
2018-04-04T03:58:58.050Z,12.5
2018-04-04T03:59:58.705Z,12.5
2018-04-04T04:00:59.361Z,12.5
2018-04-04T04:02:00.017Z,12.5
2018-04-04T04:03:00.671Z,12.5
2018-04-04T04:04:01.326Z,12.5
2018-04-04T04:05:01.980Z,12.5
2018-04-04T04:06:02.634Z,12.4
2018-04-04T04:07:03.289Z,12.5
2018-04-04T04:08:03.945Z,12.5
2018-04-04T04:09:04.600Z,12.3
2018-04-04T04:10:05.276Z,12.5
2018-04-04T04:11:05.914Z,12.4
2018-04-04T04:12:06.564Z,12.4
2018-04-04T04:13:07.219Z,12.4
2018-04-04T04:14:07.874Z,12.3
2018-04-04T04:15:08.564Z,12.5
2018-04-04T04:16:09.259Z,12.4
2018-04-04T04:17:09.875Z,12.3
2018-04-04T04:18:10.529Z,12.4
2018-04-04T04:19:11.184Z,12.3
2018-04-04T04:20:11.838Z,12.4
2018-04-04T04:21:12.498Z,12.3
2018-04-04T04:22:13.185Z,12.4
2018-04-04T04:23:13.841Z,12.4
2018-04-04T04:24:14.496Z,12.3
2018-04-04T04:25:15.152Z,12.4
2018-04-04T04:26:15.806Z,12.4
2018-04-04T04:27:16.461Z,12.4
2018-04-04T04:28:17.117Z,12.4
2018-04-04T04:29:17.774Z,12.4
2018-04-04T04:30:18.466Z,12.4
2018-04-04T04:31:19.182Z,12.4
2018-04-04T04:32:19.778Z,12.4
2018-04-04T04:33:20.437Z,12.4
2018-04-04T04:34:21.095Z,12.4
2018-04-04T04:35:21.748Z,12.4
2018-04-04T04:36:22.402Z,12.5
2018-04-04T04:37:23.060Z,12.5
2018-04-04T04:38:23.714Z,12.5
2018-04-04T04:39:24.368Z,12.4
2018-04-04T04:40:25.026Z,12.4
2018-04-04T04:41:25.685Z,12.4
2018-04-04T04:42:26.338Z,12.4
2018-04-04T04:43:26.995Z,12.4
2018-04-04T04:44:27.671Z,12.4
2018-04-04T04:45:28.308Z,12.4
2018-04-04T04:46:28.966Z,12.4
2018-04-04T04:47:29.625Z,12.4
2018-04-04T04:48:30.282Z,12.3
2018-04-04T04:49:30.938Z,12.4
2018-04-04T04:50:31.596Z,12.3
2018-04-04T04:51:32.260Z,12.4
2018-04-04T04:52:32.911Z,12.4
2018-04-04T04:53:33.604Z,12.4
2018-04-04T04:54:34.297Z,12.4
2018-04-04T04:55:34.955Z,12.4
2018-04-04T04:56:35.614Z,12.3
2018-04-04T04:57:36.270Z,12.3
2018-04-04T04:58:36.929Z,12.3
2018-04-04T04:59:37.586Z,12.4
2018-04-04T05:00:38.250Z,12.4
2018-04-04T05:01:38.959Z,12.3
2018-04-04T05:02:39.561Z,12.4
2018-04-04T05:03:40.219Z,12.3
2018-04-04T05:04:40.878Z,12.4
2018-04-04T05:05:41.536Z,12.4
2018-04-04T05:06:42.194Z,12.4
2018-04-04T05:07:42.852Z,12.4
2018-04-04T05:08:43.510Z,12.4
2018-04-04T05:09:44.168Z,12.4
2018-04-04T05:10:44.826Z,12.4
2018-04-04T05:11:45.484Z,12.4
2018-04-04T05:12:46.179Z,12.3
2018-04-04T05:13:46.836Z,12.3
2018-04-04T05:14:47.493Z,12.3
2018-04-04T05:15:48.152Z,12.2
2018-04-04T05:16:48.812Z,12.3
2018-04-04T05:17:49.470Z,12.3
2018-04-04T05:18:50.129Z,12.2
2018-04-04T05:19:50.786Z,12.2
2018-04-04T05:20:51.482Z,12.2
2018-04-04T05:21:52.139Z,12.1
2018-04-04T05:22:53.017Z,12.2
2018-04-04T05:23:53.461Z,12.2
2018-04-04T05:24:54.122Z,12.1
2018-04-04T05:25:54.782Z,12.1
2018-04-04T05:26:55.477Z,12.1
2018-04-04T05:27:56.173Z,12.0
2018-04-04T05:28:56.834Z,12.0
2018-04-04T05:29:57.495Z,12.2
2018-04-04T05:30:58.157Z,12.0
2018-04-04T05:31:58.814Z,12.1
2018-04-04T05:32:59.474Z,12.0
2018-04-04T05:34:00.133Z,12.0
2018-04-04T05:35:00.792Z,12.0
2018-04-04T05:36:01.457Z,12.0
2018-04-04T05:37:02.113Z,12.1
2018-04-04T05:38:02.774Z,12.0
2018-04-04T05:39:03.434Z,12.0
2018-04-04T05:40:04.093Z,12.1
2018-04-04T05:41:04.755Z,12.1
2018-04-04T05:42:05.414Z,12.1
2018-04-04T05:43:06.145Z,12.2
2018-04-04T05:44:06.771Z,12.2
2018-04-04T05:45:07.431Z,12.3
2018-04-04T05:46:08.089Z,12.2
2018-04-04T05:47:08.749Z,12.3
2018-04-04T05:48:09.407Z,12.4
2018-04-04T05:49:10.067Z,12.3
2018-04-04T05:50:10.726Z,12.4
2018-04-04T05:51:11.605Z,12.4
2018-04-04T05:52:12.045Z,12.5
2018-04-04T05:53:12.741Z,12.5
2018-04-04T05:54:13.400Z,12.6
2018-04-04T05:55:14.058Z,12.5
2018-04-04T05:56:14.719Z,12.6
2018-04-04T05:57:15.388Z,12.6
2018-04-04T05:58:16.078Z,12.8
2018-04-04T05:59:16.761Z,12.8
2018-04-04T06:00:17.399Z,12.8
2018-04-04T06:01:18.059Z,12.9
2018-04-04T06:02:18.720Z,12.9
2018-04-04T06:03:19.384Z,12.8
2018-04-04T06:04:20.044Z,13.0
2018-04-04T06:05:20.711Z,13.0
2018-04-04T06:06:21.369Z,13.0
2018-04-04T06:07:22.030Z,13.1
2018-04-04T06:08:22.691Z,13.3
2018-04-04T06:09:23.355Z,13.3
2018-04-04T06:10:24.016Z,13.4
2018-04-04T06:11:24.725Z,13.5
2018-04-04T06:12:25.385Z,13.5
2018-04-04T06:13:26.047Z,13.6
2018-04-04T06:14:26.712Z,13.7
2018-04-04T06:15:27.375Z,13.9
2018-04-04T06:16:28.083Z,14.0
2018-04-04T06:17:28.744Z,14.2
2018-04-04T06:18:29.406Z,14.3
2018-04-04T06:19:30.066Z,14.5
2018-04-04T06:20:30.758Z,14.4
2018-04-04T06:21:31.390Z,14.7
2018-04-04T06:22:32.051Z,14.8
2018-04-04T06:23:32.714Z,15.0
2018-04-04T06:24:33.377Z,15.0
2018-04-04T06:25:34.077Z,15.1
2018-04-04T06:26:34.787Z,15.3
2018-04-04T06:27:35.452Z,15.4
2018-04-04T06:28:36.147Z,15.4
2018-04-04T06:29:36.810Z,15.6
2018-04-04T06:30:37.473Z,15.7
2018-04-04T06:31:38.248Z,15.8
2018-04-04T06:32:38.800Z,15.9
2018-04-04T06:33:39.461Z,16.0
2018-04-04T06:34:40.123Z,16.0
2018-04-04T06:35:40.785Z,16.2
2018-04-04T06:36:41.448Z,16.2
2018-04-04T06:37:42.118Z,16.3
2018-04-04T06:38:42.773Z,16.4
2018-04-04T06:39:43.435Z,16.4
2018-04-04T06:40:44.100Z,16.4
2018-04-04T06:41:44.763Z,16.4
2018-04-04T06:42:45.423Z,16.5
2018-04-04T06:43:46.086Z,16.5
2018-04-04T06:44:46.750Z,16.5
2018-04-04T06:45:47.410Z,16.6
2018-04-04T06:46:48.074Z,16.6
2018-04-04T06:47:48.738Z,16.6
2018-04-04T06:48:49.408Z,16.7
2018-04-04T06:49:50.106Z,16.7
2018-04-04T06:50:50.727Z,16.8
2018-04-04T06:51:51.390Z,16.8
2018-04-04T06:52:52.055Z,16.8
2018-04-04T06:53:52.717Z,16.8
2018-04-04T06:54:53.381Z,17.1
2018-04-04T06:55:54.049Z,17.1
2018-04-04T06:56:54.708Z,17.1
2018-04-04T06:57:55.377Z,17.1
2018-04-04T06:58:56.073Z,17.2
2018-04-04T06:59:56.738Z,17.1
2018-04-04T07:00:57.403Z,17.2
2018-04-04T07:01:58.063Z,17.3
2018-04-04T07:02:58.765Z,17.4
2018-04-04T07:03:59.427Z,17.5
2018-04-04T07:05:00.132Z,17.5
2018-04-04T07:06:00.791Z,17.6
2018-04-04T07:07:01.461Z,17.9
2018-04-04T07:08:02.123Z,17.9
2018-04-04T07:09:02.788Z,18.0
2018-04-04T07:10:03.454Z,18.3
2018-04-04T07:11:04.126Z,18.4
2018-04-04T07:12:04.787Z,18.5
2018-04-04T07:13:05.561Z,18.5
2018-04-04T07:14:06.144Z,18.6
2018-04-04T07:15:06.812Z,18.7
2018-04-04T07:16:07.477Z,18.8
2018-04-04T07:17:08.143Z,18.8
2018-04-04T07:18:08.810Z,18.8
2018-04-04T07:19:09.476Z,18.9
2018-04-04T07:20:10.143Z,18.8
2018-04-04T07:21:10.811Z,18.7
2018-04-04T07:22:11.474Z,18.6
2018-04-04T07:23:12.138Z,18.4
2018-04-04T07:24:12.840Z,18.4
2018-04-04T07:25:13.506Z,18.6
2018-04-04T07:26:14.169Z,18.4
2018-04-04T07:27:14.834Z,18.5
2018-04-04T07:28:15.501Z,18.6
2018-04-04T07:29:16.165Z,18.6
2018-04-04T07:30:16.861Z,18.7
2018-04-04T07:31:17.530Z,18.7
2018-04-04T07:32:18.196Z,18.8
2018-04-04T07:33:18.860Z,18.8
2018-04-04T07:34:19.527Z,18.9
2018-04-04T07:35:20.196Z,19.0
2018-04-04T07:36:20.859Z,19.2
2018-04-04T07:37:21.521Z,19.3
2018-04-04T07:38:22.185Z,19.4
2018-04-04T07:39:22.886Z,19.5
2018-04-04T07:40:23.518Z,19.7
2018-04-04T07:41:24.184Z,19.9
2018-04-04T07:42:24.847Z,20.0
2018-04-04T07:43:25.530Z,20.3
2018-04-04T07:44:26.216Z,20.6
2018-04-04T07:45:26.880Z,20.7
2018-04-04T07:46:27.545Z,20.8
2018-04-04T07:47:28.210Z,20.9
2018-04-04T07:48:28.876Z,21.0
2018-04-04T07:49:29.540Z,21.0
2018-04-04T07:50:30.208Z,21.0
2018-04-04T07:51:30.876Z,21.1
2018-04-04T07:52:31.543Z,20.9
2018-04-04T07:53:32.210Z,21.0
2018-04-04T07:54:32.874Z,20.9
2018-04-04T07:55:33.540Z,20.9
2018-04-04T07:56:34.241Z,21.0
2018-04-04T07:57:34.874Z,21.0
2018-04-04T07:58:35.539Z,20.8
2018-04-04T07:59:36.208Z,20.7
2018-04-04T08:00:36.874Z,20.7
2018-04-04T08:01:37.541Z,20.5
2018-04-04T08:02:38.207Z,20.4
2018-04-04T08:03:38.872Z,20.4
2018-04-04T08:04:39.539Z,20.3
2018-04-04T08:05:40.254Z,20.3
2018-04-04T08:06:40.874Z,20.3
2018-04-04T08:07:41.541Z,20.2
2018-04-04T08:08:42.253Z,20.1
2018-04-04T08:09:42.951Z,20.1
2018-04-04T08:10:43.617Z,20.0
2018-04-04T08:11:44.281Z,19.9
2018-04-04T08:12:44.954Z,19.9
2018-04-04T08:13:45.651Z,19.8
2018-04-04T08:14:46.318Z,19.7
2018-04-04T08:15:46.986Z,19.7
2018-04-04T08:16:47.689Z,19.5
2018-04-04T08:17:48.352Z,19.5
2018-04-04T08:18:49.018Z,19.4
2018-04-04T08:19:49.690Z,19.5
2018-04-04T08:20:50.350Z,19.6
2018-04-04T08:21:51.016Z,19.7
2018-04-04T08:22:51.683Z,19.8
2018-04-04T08:23:52.350Z,19.8
2018-04-04T08:24:53.018Z,19.9
2018-04-04T08:25:53.682Z,20.1
2018-04-04T08:26:54.347Z,20.2
2018-04-04T08:27:55.030Z,20.4
2018-04-04T08:28:55.720Z,20.5
2018-04-04T08:29:56.387Z,20.8
2018-04-04T08:30:57.056Z,21.2
2018-04-04T08:31:57.725Z,21.7
2018-04-04T08:32:58.394Z,22.2
2018-04-04T08:33:59.060Z,22.4
2018-04-04T08:34:59.728Z,22.8
2018-04-04T08:36:00.393Z,23.3
2018-04-04T08:37:01.061Z,23.7
2018-04-04T08:38:01.731Z,24.0
2018-04-04T08:39:02.397Z,24.2
2018-04-04T08:40:03.064Z,24.4
2018-04-04T08:41:03.771Z,24.8
2018-04-04T08:42:04.439Z,25.0
2018-04-04T08:43:05.109Z,25.3
2018-04-04T08:44:05.777Z,25.5
2018-04-04T08:45:06.447Z,25.7
2018-04-04T08:46:07.115Z,25.8
2018-04-04T08:47:07.784Z,25.5
2018-04-04T08:48:08.453Z,25.6
2018-04-04T08:49:09.124Z,25.6
2018-04-04T08:50:09.830Z,25.6
2018-04-04T08:51:10.501Z,25.5
2018-04-04T08:52:11.171Z,25.3
2018-04-04T08:53:11.885Z,25.2
2018-04-04T08:54:12.510Z,24.9
2018-04-04T08:55:13.181Z,24.9
2018-04-04T08:56:13.886Z,24.8
2018-04-04T08:57:14.556Z,24.9
2018-04-04T08:58:15.226Z,24.9
2018-04-04T08:59:15.896Z,24.9
2018-04-04T09:00:16.568Z,24.8
2018-04-04T09:01:17.237Z,25.0
2018-04-04T09:02:17.905Z,25.0
2018-04-04T09:03:18.573Z,25.0
2018-04-04T09:04:19.242Z,25.1
2018-04-04T09:05:19.911Z,25.3
2018-04-04T09:06:20.580Z,25.3
2018-04-04T09:07:21.249Z,25.5
2018-04-04T09:08:21.919Z,25.7
2018-04-04T09:09:22.588Z,25.9
2018-04-04T09:10:23.257Z,26.1
2018-04-04T09:11:23.924Z,26.4
2018-04-04T09:12:24.620Z,26.6
2018-04-04T09:13:25.264Z,26.8
2018-04-04T09:14:25.994Z,26.9
2018-04-04T09:15:26.602Z,27.0
2018-04-04T09:16:27.284Z,27.0
2018-04-04T09:17:27.989Z,27.0
2018-04-04T09:18:28.649Z,26.9
2018-04-04T09:19:29.318Z,26.8
2018-04-04T09:20:29.988Z,26.7
2018-04-04T09:21:30.659Z,26.7
2018-04-04T09:22:31.328Z,26.8
2018-04-04T09:23:31.997Z,27.0
2018-04-04T09:24:32.668Z,27.2
2018-04-04T09:25:33.339Z,27.2
2018-04-04T09:26:34.011Z,27.3
2018-04-04T09:27:34.685Z,27.2
2018-04-04T09:28:35.348Z,27.0
2018-04-04T09:29:36.056Z,27.0
2018-04-04T09:30:36.725Z,27.0
2018-04-04T09:31:37.397Z,27.2
2018-04-04T09:32:38.070Z,27.3
2018-04-04T09:33:38.739Z,27.2
2018-04-04T09:34:39.410Z,27.3
2018-04-04T09:35:40.107Z,26.9
2018-04-04T09:36:40.749Z,26.2
2018-04-04T09:37:41.418Z,26.0
2018-04-04T09:38:42.088Z,26.0
2018-04-04T09:39:42.757Z,26.1
2018-04-04T09:40:43.466Z,26.0
2018-04-04T09:41:44.137Z,25.8
2018-04-04T09:42:44.807Z,25.6
2018-04-04T09:43:45.477Z,25.7
2018-04-04T09:44:46.145Z,25.7
2018-04-04T09:45:46.814Z,25.9
2018-04-04T09:46:47.485Z,26.1
2018-04-04T09:47:48.154Z,26.2
2018-04-04T09:48:48.824Z,26.2
2018-04-04T09:49:49.494Z,26.3
2018-04-04T09:50:50.166Z,26.4
2018-04-04T09:51:50.835Z,26.1
2018-04-04T09:52:51.504Z,25.8
2018-04-04T09:53:52.174Z,25.7
2018-04-04T09:54:52.844Z,25.7
2018-04-04T09:55:53.513Z,25.7
2018-04-04T09:56:54.181Z,25.9
2018-04-04T09:57:54.853Z,26.0
2018-04-04T09:58:55.524Z,25.7
2018-04-04T09:59:56.230Z,25.6
2018-04-04T10:00:56.899Z,25.1
2018-04-04T10:01:57.568Z,24.7
2018-04-04T10:02:58.238Z,24.4
2018-04-04T10:03:58.909Z,24.2
2018-04-04T10:04:59.578Z,24.2
2018-04-04T10:06:00.249Z,24.1
2018-04-04T10:07:00.921Z,24.0
2018-04-04T10:08:01.596Z,23.9
2018-04-04T10:09:02.298Z,23.8
2018-04-04T10:10:02.967Z,23.7
2018-04-04T10:11:03.637Z,23.4
2018-04-04T10:12:04.308Z,23.5
2018-04-04T10:13:05.015Z,23.6
2018-04-04T10:14:05.736Z,23.6
2018-04-04T10:15:06.405Z,23.7
2018-04-04T10:16:07.076Z,23.8
2018-04-04T10:17:07.745Z,23.8
2018-04-04T10:18:08.430Z,23.8
2018-04-04T10:19:09.099Z,23.8
2018-04-04T10:20:09.768Z,23.9
2018-04-04T10:21:10.438Z,23.8
2018-04-04T10:22:11.106Z,23.6
2018-04-04T10:23:11.775Z,23.4
2018-04-04T10:24:12.441Z,23.2
2018-04-04T10:25:13.111Z,22.9
2018-04-04T10:26:13.780Z,22.7
2018-04-04T10:27:14.449Z,22.6
2018-04-04T10:28:15.116Z,22.7
2018-04-04T10:29:15.786Z,22.8
2018-04-04T10:30:16.456Z,23.0
2018-04-04T10:31:17.127Z,23.1
2018-04-04T10:32:17.793Z,23.1
2018-04-04T10:33:18.469Z,23.3
2018-04-04T10:34:19.169Z,23.4
2018-04-04T10:35:19.836Z,23.5
2018-04-04T10:36:20.505Z,23.6
2018-04-04T10:37:21.175Z,23.5
2018-04-04T10:38:21.845Z,23.5
2018-04-04T10:39:22.513Z,23.5
2018-04-04T10:40:23.183Z,23.4
2018-04-04T10:41:23.885Z,23.4
2018-04-04T10:42:24.554Z,23.3
2018-04-04T10:43:25.222Z,23.2
2018-04-04T10:44:25.972Z,23.3
2018-04-04T10:45:26.559Z,23.2
2018-04-04T10:46:27.228Z,23.2
2018-04-04T10:47:27.895Z,23.2
2018-04-04T10:48:28.562Z,23.2
2018-04-04T10:49:29.231Z,23.1
2018-04-04T10:50:29.998Z,22.9
2018-04-04T10:51:30.566Z,22.8
2018-04-04T10:52:31.272Z,22.7
2018-04-04T10:53:31.942Z,22.8
2018-04-04T10:54:32.611Z,22.8
2018-04-04T10:55:33.278Z,22.8
2018-04-04T10:56:33.945Z,23.0
2018-04-04T10:57:34.613Z,22.9
2018-04-04T10:58:35.280Z,22.9
2018-04-04T10:59:35.948Z,23.0
2018-04-04T11:00:36.615Z,22.9
2018-04-04T11:01:37.285Z,22.9
2018-04-04T11:02:37.953Z,22.9
2018-04-04T11:03:38.620Z,22.8
2018-04-04T11:04:39.287Z,22.8
2018-04-04T11:05:39.954Z,22.8
2018-04-04T11:06:40.622Z,22.7
2018-04-04T11:07:41.289Z,22.7
2018-04-04T11:08:41.956Z,22.5
2018-04-04T11:09:42.626Z,22.5
2018-04-04T11:10:43.329Z,22.7
2018-04-04T11:11:43.997Z,22.7
2018-04-04T11:12:44.664Z,22.6
2018-04-04T11:13:45.332Z,22.6
2018-04-04T11:14:45.998Z,22.5
2018-04-04T11:15:46.666Z,22.5
2018-04-04T11:16:47.333Z,22.6
2018-04-04T11:17:48.003Z,22.3
2018-04-04T11:18:48.671Z,22.3
2018-04-04T11:19:49.338Z,22.3
2018-04-04T11:20:50.006Z,22.3
2018-04-04T11:21:50.673Z,22.4
2018-04-04T11:22:51.340Z,22.4
2018-04-04T11:23:52.066Z,22.5
2018-04-04T11:24:52.674Z,22.6
2018-04-04T11:25:53.344Z,22.7
2018-04-04T11:26:54.012Z,22.7
2018-04-04T11:27:54.678Z,22.7
2018-04-04T11:28:55.345Z,22.6
2018-04-04T11:29:56.015Z,22.7
2018-04-04T11:30:56.687Z,22.5
2018-04-04T11:31:57.352Z,22.5
2018-04-04T11:32:58.016Z,22.4
2018-04-04T11:33:58.686Z,22.5
2018-04-04T11:34:59.398Z,22.6
2018-04-04T11:36:00.057Z,22.5
2018-04-04T11:37:00.723Z,22.5
2018-04-04T11:38:01.390Z,22.6
2018-04-04T11:39:02.058Z,22.7
2018-04-04T11:40:02.725Z,22.6
2018-04-04T11:41:03.392Z,22.7
2018-04-04T11:42:04.097Z,22.7
2018-04-04T11:43:04.765Z,22.6
2018-04-04T11:44:05.432Z,22.6
2018-04-04T11:45:06.098Z,22.5
2018-04-04T11:46:06.766Z,22.4
2018-04-04T11:47:07.433Z,22.4
2018-04-04T11:48:08.100Z,22.4
2018-04-04T11:49:08.771Z,22.5
2018-04-04T11:50:09.440Z,22.5
2018-04-04T11:51:10.108Z,22.4
2018-04-04T11:52:10.813Z,22.4
2018-04-04T11:53:11.478Z,22.3
2018-04-04T11:54:12.145Z,22.3
2018-04-04T11:55:12.813Z,22.4
2018-04-04T11:56:13.480Z,22.4
2018-04-04T11:57:14.152Z,22.5
2018-04-04T11:58:14.817Z,22.4
2018-04-04T11:59:15.484Z,22.4
2018-04-04T12:00:16.152Z,22.6
2018-04-04T12:01:16.857Z,22.7
2018-04-04T12:02:17.561Z,22.7
2018-04-04T12:03:18.231Z,22.9
2018-04-04T12:04:18.896Z,22.9
2018-04-04T12:05:19.564Z,23.0
2018-04-04T12:06:20.234Z,23.1
2018-04-04T12:07:20.901Z,23.1
2018-04-04T12:08:21.567Z,23.1
2018-04-04T12:09:22.232Z,23.2
2018-04-04T12:10:22.904Z,23.1
2018-04-04T12:11:23.570Z,23.1
2018-04-04T12:12:24.238Z,23.0
2018-04-04T12:13:24.903Z,23.0
2018-04-04T12:14:25.572Z,22.9
2018-04-04T12:15:26.242Z,22.7
2018-04-04T12:16:26.907Z,22.7
2018-04-04T12:17:27.573Z,22.5
2018-04-04T12:18:28.242Z,22.4
2018-04-04T12:19:28.947Z,22.5
2018-04-04T12:20:29.612Z,22.4
2018-04-04T12:21:30.283Z,22.3
2018-04-04T12:22:30.952Z,22.5
2018-04-04T12:23:31.627Z,22.4
2018-04-04T12:24:32.290Z,22.4
2018-04-04T12:25:32.958Z,22.4
2018-04-04T12:26:33.626Z,22.5
2018-04-04T12:27:34.293Z,22.4
2018-04-04T12:28:34.960Z,22.5
2018-04-04T12:29:35.629Z,22.5
2018-04-04T12:30:36.296Z,22.5
2018-04-04T12:31:36.968Z,22.4
2018-04-04T12:32:37.693Z,22.4
2018-04-04T12:33:38.342Z,22.4
2018-04-04T12:34:39.008Z,22.5
2018-04-04T12:35:39.674Z,22.6
2018-04-04T12:36:40.342Z,22.5
2018-04-04T12:37:41.013Z,22.7
2018-04-04T12:38:41.716Z,22.6
2018-04-04T12:39:42.384Z,22.6
2018-04-04T12:40:43.051Z,22.5
2018-04-04T12:41:43.722Z,22.4
2018-04-04T12:42:44.388Z,22.4
2018-04-04T12:43:45.054Z,22.4
2018-04-04T12:44:45.720Z,22.5
2018-04-04T12:45:46.439Z,22.5
2018-04-04T12:46:47.106Z,22.6
2018-04-04T12:47:47.843Z,22.6
2018-04-04T12:48:48.439Z,22.5
2018-04-04T12:49:49.106Z,22.7
2018-04-04T12:50:49.812Z,22.7
2018-04-04T12:51:50.518Z,22.7
2018-04-04T12:52:51.145Z,22.6
2018-04-04T12:53:51.810Z,22.7
2018-04-04T12:54:52.480Z,22.5
2018-04-04T12:55:53.147Z,22.6
2018-04-04T12:56:53.814Z,22.5
2018-04-04T12:57:54.485Z,22.5
2018-04-04T12:58:55.151Z,22.5
2018-04-04T12:59:55.819Z,22.6
2018-04-04T13:00:56.485Z,22.5
2018-04-04T13:01:57.154Z,22.7
2018-04-04T13:02:57.818Z,22.6
2018-04-04T13:03:58.489Z,22.6
2018-04-04T13:04:59.153Z,22.8
2018-04-04T13:05:59.870Z,22.7
2018-04-04T13:07:00.536Z,22.8
2018-04-04T13:08:01.207Z,22.9
2018-04-04T13:09:01.873Z,23.0
2018-04-04T13:10:02.545Z,23.0
2018-04-04T13:11:03.208Z,23.1
2018-04-04T13:12:03.876Z,23.0
2018-04-04T13:13:04.542Z,23.1
2018-04-04T13:14:05.214Z,23.1
2018-04-04T13:15:05.878Z,23.3
2018-04-04T13:16:06.581Z,23.4
2018-04-04T13:17:07.253Z,23.5
2018-04-04T13:18:07.976Z,23.6
2018-04-04T13:19:08.660Z,23.7
2018-04-04T13:20:09.329Z,23.9
2018-04-04T13:21:09.997Z,23.9
2018-04-04T13:22:10.663Z,24.0
2018-04-04T13:23:11.333Z,24.0
2018-04-04T13:24:12.002Z,24.0
2018-04-04T13:25:12.671Z,24.1
2018-04-04T13:26:13.390Z,24.2
2018-04-04T13:27:14.059Z,24.1